createdAt,value
2018-03-11T00:02:06.196Z,10.10
2018-03-11T00:04:34.102Z,10.20
2018-03-11T00:07:02.001Z,10.20
2018-03-11T00:09:29.900Z,10.20
2018-03-11T00:11:57.804Z,10.30
2018-03-11T00:14:25.705Z,10.40
2018-03-11T00:16:53.600Z,10.40
2018-03-11T00:19:21.508Z,10.40
2018-03-11T00:21:49.680Z,10.50
2018-03-11T00:24:17.580Z,10.50
2018-03-11T00:26:45.484Z,10.50
2018-03-11T00:29:13.373Z,10.60
2018-03-11T00:31:41.276Z,10.60
2018-03-11T00:34:09.193Z,10.60
2018-03-11T00:36:37.113Z,10.60
2018-03-11T00:39:05.047Z,10.60
2018-03-11T00:41:32.948Z,10.70
2018-03-11T00:44:00.852Z,10.70
2018-03-11T00:46:28.745Z,10.70
2018-03-11T00:48:56.651Z,10.70
2018-03-11T00:51:24.560Z,10.70
2018-03-11T00:53:52.460Z,10.70
2018-03-11T00:56:20.352Z,10.70
2018-03-11T00:58:48.245Z,10.70
2018-03-11T01:01:16.144Z,10.70
2018-03-11T01:03:44.037Z,10.70
2018-03-11T01:06:11.985Z,10.60
2018-03-11T01:08:39.897Z,10.50
2018-03-11T01:11:07.809Z,10.50
2018-03-11T01:13:35.734Z,10.50
2018-03-11T01:16:03.646Z,10.40
2018-03-11T01:18:31.576Z,10.40
2018-03-11T01:20:59.524Z,10.40
2018-03-11T01:23:27.432Z,10.30
2018-03-11T01:25:55.332Z,10.30
2018-03-11T01:28:23.232Z,10.20
2018-03-11T01:30:51.157Z,10.20
2018-03-11T01:33:19.073Z,10.10
2018-03-11T01:35:46.988Z,10.10
2018-03-11T01:38:14.888Z,10.10
2018-03-11T01:40:42.790Z,10.00
2018-03-11T01:43:10.703Z,10.00
2018-03-11T01:45:38.636Z,9.90
2018-03-11T01:48:06.534Z,9.90
2018-03-11T01:50:34.456Z,9.90
2018-03-11T01:53:07.287Z,9.90
2018-03-11T01:55:35.201Z,9.80
2018-03-11T01:58:03.528Z,9.80
2018-03-11T02:00:31.432Z,9.80
2018-03-11T02:02:59.358Z,9.80
2018-03-11T02:05:27.264Z,9.80
2018-03-11T02:07:55.184Z,9.70
2018-03-11T02:10:23.091Z,9.80
2018-03-11T02:12:51.008Z,9.80
2018-03-11T02:15:18.927Z,9.80
2018-03-11T02:17:46.832Z,9.80
2018-03-11T02:20:14.946Z,9.80
2018-03-11T02:22:42.832Z,9.70
2018-03-11T02:25:10.728Z,9.80
2018-03-11T02:27:38.636Z,9.70
2018-03-11T02:30:06.546Z,9.70
2018-03-11T02:32:34.450Z,9.60
2018-03-11T02:35:02.385Z,9.60
2018-03-11T02:37:30.840Z,9.60
2018-03-11T02:39:58.752Z,9.60
2018-03-11T02:42:26.648Z,9.60
2018-03-11T02:44:54.549Z,9.60
2018-03-11T02:47:22.454Z,9.60
2018-03-11T02:49:50.372Z,9.60
2018-03-11T02:52:18.286Z,9.70
2018-03-11T02:54:46.188Z,9.60
2018-03-11T02:57:14.089Z,9.60
2018-03-11T02:59:41.989Z,9.70
2018-03-11T03:02:09.897Z,9.70
2018-03-11T03:04:37.793Z,9.60
2018-03-11T03:07:05.696Z,9.60
2018-03-11T03:09:33.925Z,9.70
2018-03-11T03:12:01.824Z,9.70
2018-03-11T03:14:29.723Z,9.70
2018-03-11T03:16:57.664Z,9.70
2018-03-11T03:19:25.620Z,9.70
2018-03-11T03:21:53.495Z,9.70
2018-03-11T03:24:21.440Z,9.70
2018-03-11T03:26:49.737Z,9.80
2018-03-11T03:29:17.664Z,9.80
2018-03-11T03:31:45.561Z,9.80
2018-03-11T03:34:13.456Z,9.90
2018-03-11T03:36:41.357Z,9.90
2018-03-11T03:39:09.260Z,10.00
2018-03-11T03:41:37.185Z,9.90
2018-03-11T03:44:05.090Z,10.00
2018-03-11T03:46:32.988Z,10.00
2018-03-11T03:49:00.891Z,10.10
2018-03-11T03:51:28.799Z,10.20
2018-03-11T03:53:56.710Z,10.20
2018-03-11T03:56:24.617Z,10.30
2018-03-11T03:58:52.537Z,10.30
2018-03-11T04:01:21.794Z,10.30
2018-03-11T04:03:49.696Z,10.30
2018-03-11T04:06:17.602Z,10.30
2018-03-11T04:08:45.512Z,10.30
2018-03-11T04:11:13.420Z,10.30
2018-03-11T04:13:41.320Z,10.30
2018-03-11T04:16:09.220Z,10.20
2018-03-11T04:18:37.164Z,10.20
2018-03-11T04:21:05.068Z,10.20
2018-03-11T04:23:32.954Z,10.30
2018-03-11T04:26:00.844Z,10.30
2018-03-11T04:28:28.773Z,10.30
2018-03-11T04:30:56.685Z,10.20
2018-03-11T04:33:24.597Z,10.30
2018-03-11T04:35:52.502Z,10.20
2018-03-11T04:38:20.425Z,10.20
2018-03-11T04:40:48.316Z,10.20
2018-03-11T04:43:16.216Z,10.30
2018-03-11T04:45:44.145Z,10.30
2018-03-11T04:48:12.032Z,10.30
2018-03-11T04:50:39.933Z,10.30
2018-03-11T04:53:08.343Z,10.30
2018-03-11T04:55:36.260Z,10.30
2018-03-11T04:58:04.180Z,10.30
2018-03-11T05:00:32.077Z,10.20
2018-03-11T05:02:59.980Z,10.20
2018-03-11T05:05:27.892Z,10.20
2018-03-11T05:07:55.784Z,10.40
2018-03-11T05:10:23.685Z,10.30
2018-03-11T05:12:51.589Z,10.30
2018-03-11T05:15:19.484Z,10.40
2018-03-11T05:17:47.388Z,10.40
2018-03-11T05:20:15.284Z,10.40
2018-03-11T05:22:43.185Z,10.40
2018-03-11T05:25:11.093Z,10.40
2018-03-11T05:27:39.598Z,10.40
2018-03-11T05:30:07.517Z,10.40
2018-03-11T05:32:35.421Z,10.40
2018-03-11T05:35:03.328Z,10.40
2018-03-11T05:37:31.248Z,10.40
2018-03-11T05:39:59.144Z,10.30
2018-03-11T05:42:27.045Z,10.40
2018-03-11T05:44:54.932Z,10.30
2018-03-11T05:47:22.837Z,10.30
2018-03-11T05:49:50.738Z,10.30
2018-03-11T05:52:18.642Z,10.30
2018-03-11T05:54:46.842Z,10.40
2018-03-11T05:57:14.741Z,10.40
2018-03-11T05:59:42.665Z,10.40
2018-03-11T06:02:10.844Z,10.40
2018-03-11T06:04:38.758Z,10.40
2018-03-11T06:07:06.665Z,10.50
2018-03-11T06:09:34.564Z,10.40
2018-03-11T06:12:02.464Z,10.40
2018-03-11T06:14:30.364Z,10.40
2018-03-11T06:16:58.268Z,10.40
2018-03-11T06:19:26.173Z,10.40
2018-03-11T06:21:54.070Z,10.40
2018-03-11T06:24:21.972Z,10.40
2018-03-11T06:26:49.869Z,10.40
2018-03-11T06:29:17.785Z,10.40
2018-03-11T06:31:45.699Z,10.50
2018-03-11T06:34:13.589Z,10.60
2018-03-11T06:36:41.520Z,10.60
2018-03-11T06:39:09.564Z,10.60
2018-03-11T06:41:37.455Z,10.60
2018-03-11T06:44:05.366Z,10.60
2018-03-11T06:46:33.289Z,10.70
2018-03-11T06:49:01.191Z,10.70
2018-03-11T06:51:29.084Z,10.80
2018-03-11T06:53:57.505Z,10.80
2018-03-11T06:56:25.404Z,10.90
2018-03-11T06:58:53.309Z,11.00
2018-03-11T07:01:21.241Z,11.10
2018-03-11T07:03:49.195Z,11.20
2018-03-11T07:06:17.066Z,11.20
2018-03-11T07:08:44.960Z,11.30
2018-03-11T07:11:12.844Z,11.30
2018-03-11T07:13:40.736Z,11.40
2018-03-11T07:16:08.649Z,11.40
2018-03-11T07:18:36.550Z,11.40
2018-03-11T07:21:04.437Z,11.50
2018-03-11T07:23:32.359Z,11.50
2018-03-11T07:26:00.678Z,11.60
2018-03-11T07:28:28.569Z,11.70
2018-03-11T07:30:56.464Z,11.70
2018-03-11T07:33:24.370Z,11.80
2018-03-11T07:35:52.273Z,11.80
2018-03-11T07:38:20.193Z,11.90
2018-03-11T07:40:48.094Z,12.00
2018-03-11T07:43:16.020Z,11.90
2018-03-11T07:45:43.912Z,12.10
2018-03-11T07:48:11.854Z,12.20
2018-03-11T07:50:39.757Z,12.30
2018-03-11T07:53:07.956Z,12.40
2018-03-11T07:55:35.868Z,12.50
2018-03-11T07:58:03.781Z,12.80
2018-03-11T08:00:31.693Z,12.90
2018-03-11T08:02:59.618Z,13.10
2018-03-11T08:05:27.532Z,13.20
2018-03-11T08:07:55.431Z,13.20
2018-03-11T08:10:23.336Z,13.30
2018-03-11T08:12:51.231Z,13.40
2018-03-11T08:15:19.140Z,13.60
2018-03-11T08:17:47.048Z,13.80
2018-03-11T08:20:14.990Z,13.70
2018-03-11T08:22:42.861Z,13.80
2018-03-11T08:25:10.764Z,13.90
2018-03-11T08:27:39.312Z,13.80
2018-03-11T08:30:07.224Z,13.60
2018-03-11T08:32:35.131Z,13.50
2018-03-11T08:35:03.060Z,13.60
2018-03-11T08:37:31.000Z,13.60
2018-03-11T08:39:58.905Z,13.60
2018-03-11T08:42:26.801Z,13.70
2018-03-11T08:44:54.734Z,13.80
2018-03-11T08:47:22.774Z,13.90
2018-03-11T08:49:50.696Z,14.00
2018-03-11T08:52:18.602Z,14.10
2018-03-11T08:54:46.854Z,14.30
2018-03-11T08:57:14.764Z,14.40
2018-03-11T08:59:42.656Z,14.30
2018-03-11T09:02:10.584Z,14.20
2018-03-11T09:04:39.209Z,14.30
2018-03-11T09:07:07.107Z,14.30
2018-03-11T09:09:35.016Z,14.30
2018-03-11T09:12:03.019Z,14.40
2018-03-11T09:14:30.920Z,14.70
2018-03-11T09:16:58.824Z,14.80
2018-03-11T09:19:26.730Z,14.80
2018-03-11T09:21:54.628Z,14.90
2018-03-11T09:24:22.552Z,15.00
2018-03-11T09:26:51.133Z,15.10
2018-03-11T09:29:19.068Z,15.10
2018-03-11T09:31:46.981Z,15.20
2018-03-11T09:34:14.876Z,15.30
2018-03-11T09:36:42.777Z,15.20
2018-03-11T09:39:10.685Z,15.20
2018-03-11T09:41:38.618Z,15.20
2018-03-11T09:44:06.517Z,15.10
2018-03-11T09:46:34.412Z,15.10
2018-03-11T09:49:02.325Z,14.90
2018-03-11T09:51:30.552Z,14.90
2018-03-11T09:53:58.481Z,15.00
2018-03-11T09:56:26.387Z,15.20
2018-03-11T09:58:54.297Z,15.30
2018-03-11T10:01:22.227Z,15.40
2018-03-11T10:03:50.131Z,15.50
2018-03-11T10:06:18.045Z,15.50
2018-03-11T10:08:45.973Z,15.40
2018-03-11T10:11:13.882Z,15.60
2018-03-11T10:13:41.784Z,15.70
2018-03-11T10:16:09.700Z,15.70
2018-03-11T10:18:37.603Z,15.80
2018-03-11T10:21:05.512Z,15.80
2018-03-11T10:23:33.418Z,15.70
2018-03-11T10:26:01.466Z,15.70
2018-03-11T10:28:29.360Z,15.80
2018-03-11T10:30:57.272Z,16.00
2018-03-11T10:33:25.170Z,16.20
2018-03-11T10:35:53.069Z,16.20
2018-03-11T10:38:20.983Z,16.30
2018-03-11T10:40:48.884Z,16.50
2018-03-11T10:43:16.788Z,16.50
2018-03-11T10:45:44.697Z,16.60
2018-03-11T10:48:12.602Z,16.70
2018-03-11T10:50:40.513Z,16.70
2018-03-11T10:53:08.417Z,16.60
2018-03-11T10:55:36.659Z,16.70
2018-03-11T10:58:04.540Z,16.50
2018-03-11T11:00:38.534Z,16.50
2018-03-11T11:03:12.418Z,16.50
2018-03-11T11:05:40.349Z,16.60
2018-03-11T11:08:08.260Z,16.70
2018-03-11T11:10:36.164Z,16.70
2018-03-11T11:13:04.060Z,16.70
2018-03-11T11:15:31.964Z,16.80
2018-03-11T11:17:59.913Z,17.00
2018-03-11T11:20:28.093Z,17.10
2018-03-11T11:22:56.021Z,17.40
2018-03-11T11:25:23.929Z,17.50
2018-03-11T11:27:51.830Z,17.60
2018-03-11T11:30:19.737Z,17.80
2018-03-11T11:32:47.632Z,17.90
2018-03-11T11:35:15.527Z,18.10
2018-03-11T11:37:43.444Z,18.20
2018-03-11T11:40:11.344Z,18.40
2018-03-11T11:42:39.241Z,18.50
2018-03-11T11:45:07.146Z,18.60
2018-03-11T11:47:35.040Z,18.60
2018-03-11T11:50:02.935Z,18.40
2018-03-11T11:52:31.197Z,18.10
2018-03-11T11:54:59.091Z,17.90
2018-03-11T11:57:27.000Z,17.90
2018-03-11T11:59:54.905Z,18.00
2018-03-11T12:02:22.796Z,18.20
2018-03-11T12:04:50.696Z,18.50
2018-03-11T12:07:18.587Z,18.50
2018-03-11T12:09:46.484Z,18.70
2018-03-11T12:12:14.472Z,18.90
2018-03-11T12:14:42.333Z,18.80
2018-03-11T12:17:10.236Z,18.80
2018-03-11T12:19:38.648Z,18.70
2018-03-11T12:22:06.553Z,18.80
2018-03-11T12:24:34.472Z,18.70
2018-03-11T12:27:02.365Z,18.60
2018-03-11T12:29:30.254Z,18.70
2018-03-11T12:31:58.168Z,18.60
2018-03-11T12:34:26.135Z,18.60
2018-03-11T12:36:54.001Z,18.70
2018-03-11T12:39:21.892Z,18.70
2018-03-11T12:41:49.799Z,18.70
2018-03-11T12:44:17.696Z,18.80
2018-03-11T12:46:45.596Z,18.70
2018-03-11T12:49:13.500Z,18.70
2018-03-11T12:51:41.673Z,18.70
2018-03-11T12:54:09.577Z,18.70
2018-03-11T12:56:37.476Z,18.70
2018-03-11T12:59:05.381Z,18.70
2018-03-11T13:01:33.284Z,18.50
2018-03-11T13:04:01.185Z,18.40
2018-03-11T13:06:29.084Z,18.50
2018-03-11T13:08:57.024Z,18.50
2018-03-11T13:11:24.926Z,18.60
2018-03-11T13:13:52.825Z,18.70
2018-03-11T13:16:20.747Z,19.00
2018-03-11T13:18:48.661Z,19.20
2018-03-11T13:21:16.588Z,19.40
2018-03-11T13:23:44.497Z,19.30
2018-03-11T13:26:12.682Z,19.20
2018-03-11T13:28:45.492Z,19.10
2018-03-11T13:31:13.404Z,19.00
2018-03-11T13:33:53.609Z,18.90
2018-03-11T13:36:21.514Z,18.90
2018-03-11T13:39:01.774Z,18.80
2018-03-11T13:41:29.696Z,18.70
2018-03-11T13:43:57.600Z,18.70
2018-03-11T13:46:37.760Z,18.50
2018-03-11T13:49:05.697Z,18.10
2018-03-11T13:51:46.028Z,18.00
2018-03-11T13:54:13.980Z,17.80
2018-03-11T13:56:42.277Z,17.90
2018-03-11T13:59:10.170Z,17.90
2018-03-11T14:01:38.064Z,17.80
2018-03-11T14:04:05.995Z,17.90
2018-03-11T14:06:33.938Z,17.80
2018-03-11T14:09:01.837Z,17.90
2018-03-11T14:11:29.733Z,17.90
2018-03-11T14:13:57.637Z,17.90
2018-03-11T14:16:25.549Z,17.80
2018-03-11T14:18:53.503Z,17.70
2018-03-11T14:21:21.557Z,17.60
2018-03-11T14:23:49.483Z,17.60
2018-03-11T14:26:17.380Z,17.60
2018-03-11T14:28:45.291Z,17.50
2018-03-11T14:31:13.209Z,17.60
2018-03-11T14:33:41.119Z,17.60
2018-03-11T14:36:09.012Z,17.50
2018-03-11T14:38:36.947Z,17.50
2018-03-11T14:41:04.853Z,17.40
2018-03-11T14:43:32.776Z,17.50
2018-03-11T14:46:00.695Z,17.50
2018-03-11T14:48:28.609Z,17.60
2018-03-11T14:50:56.508Z,17.80
2018-03-11T14:53:24.412Z,17.90
2018-03-11T14:55:52.553Z,18.10
2018-03-11T14:58:20.473Z,18.00
2018-03-11T15:00:48.408Z,18.00
2018-03-11T15:03:16.308Z,17.90
2018-03-11T15:05:44.205Z,18.00
2018-03-11T15:08:12.152Z,17.90
2018-03-11T15:10:40.069Z,17.80
2018-03-11T15:13:08.028Z,17.60
2018-03-11T15:15:35.931Z,17.60
2018-03-11T15:18:03.828Z,17.60
2018-03-11T15:20:31.729Z,17.50
2018-03-11T15:23:00.189Z,17.40
2018-03-11T15:25:28.085Z,17.50
2018-03-11T15:27:55.983Z,17.40
2018-03-11T15:30:23.894Z,17.40
2018-03-11T15:32:51.844Z,17.30
2018-03-11T15:35:19.802Z,17.30
2018-03-11T15:37:47.723Z,17.30
2018-03-11T15:40:15.616Z,17.30
2018-03-11T15:42:43.516Z,17.20
2018-03-11T15:45:11.425Z,17.10
2018-03-11T15:47:39.361Z,17.10
2018-03-11T15:50:07.335Z,17.00
2018-03-11T15:52:35.193Z,17.00
2018-03-11T15:55:03.119Z,16.90
2018-03-11T15:57:31.333Z,17.00
2018-03-11T15:59:59.213Z,16.80
2018-03-11T16:02:27.142Z,16.70
2018-03-11T16:04:55.049Z,16.70
2018-03-11T16:07:22.952Z,16.60
2018-03-11T16:09:50.868Z,16.70
2018-03-11T16:12:18.781Z,16.50
2018-03-11T16:14:46.680Z,16.50
2018-03-11T16:17:14.656Z,16.40
2018-03-11T16:19:42.602Z,16.30
2018-03-11T16:22:10.496Z,16.20
2018-03-11T16:24:39.725Z,16.20
2018-03-11T16:27:06.705Z,16.20
2018-03-11T16:29:34.612Z,16.10
2018-03-11T16:32:02.532Z,16.00
2018-03-11T16:34:30.489Z,16.00
2018-03-11T16:36:58.362Z,15.90
2018-03-11T16:39:26.271Z,15.90
2018-03-11T16:41:54.305Z,15.80
2018-03-11T16:44:22.218Z,15.80
2018-03-11T16:46:50.117Z,15.70
2018-03-11T16:49:18.029Z,15.70
2018-03-11T16:51:45.927Z,15.70
2018-03-11T16:54:13.862Z,15.70
2018-03-11T16:56:41.768Z,15.60
2018-03-11T16:59:09.697Z,15.60
2018-03-11T17:01:37.587Z,15.50
2018-03-11T17:04:05.493Z,15.50
2018-03-11T17:06:33.444Z,15.40
2018-03-11T17:09:01.860Z,15.50
2018-03-11T17:11:29.752Z,15.40
2018-03-11T17:13:57.665Z,15.40
2018-03-11T17:16:25.584Z,15.40
2018-03-11T17:18:53.484Z,15.30
2018-03-11T17:21:21.384Z,15.30
2018-03-11T17:23:49.297Z,15.30
2018-03-11T17:26:17.200Z,15.30
2018-03-11T17:28:45.094Z,15.20
2018-03-11T17:31:13.484Z,15.10
2018-03-11T17:33:41.404Z,15.20
2018-03-11T17:36:09.425Z,15.10
2018-03-11T17:38:37.334Z,15.10
2018-03-11T17:41:05.241Z,15.10
2018-03-11T17:43:33.148Z,15.10
2018-03-11T17:46:01.044Z,15.10
2018-03-11T17:48:28.949Z,15.10
2018-03-11T17:50:56.992Z,15.00
2018-03-11T17:53:24.891Z,15.10
2018-03-11T17:55:52.803Z,15.00
2018-03-11T17:58:20.704Z,14.90
2018-03-11T18:00:48.616Z,14.90
2018-03-11T18:03:16.520Z,14.90
2018-03-11T18:05:44.432Z,14.90
2018-03-11T18:08:12.361Z,14.90
2018-03-11T18:10:40.278Z,14.90
2018-03-11T18:13:08.186Z,14.80
2018-03-11T18:15:36.080Z,14.70
2018-03-11T18:18:03.984Z,14.80
2018-03-11T18:20:31.904Z,14.70
2018-03-11T18:22:59.925Z,14.70
2018-03-11T18:25:27.841Z,14.70
2018-03-11T18:27:55.744Z,14.60
2018-03-11T18:30:23.640Z,14.50
2018-03-11T18:32:51.545Z,14.50
2018-03-11T18:35:19.452Z,14.50
2018-03-11T18:37:47.359Z,14.50
2018-03-11T18:40:15.272Z,14.50
2018-03-11T18:42:43.174Z,14.40
2018-03-11T18:45:11.068Z,14.40
2018-03-11T18:47:38.968Z,14.40
2018-03-11T18:50:06.872Z,14.40
2018-03-11T18:52:35.108Z,14.40
2018-03-11T18:55:03.017Z,14.40
2018-03-11T18:57:30.916Z,14.40
2018-03-11T18:59:58.811Z,14.30
2018-03-11T19:02:26.705Z,14.20
2018-03-11T19:04:54.600Z,14.20
2018-03-11T19:07:22.500Z,14.20
2018-03-11T19:09:50.394Z,14.10
2018-03-11T19:12:18.293Z,14.10
2018-03-11T19:14:46.185Z,14.10
2018-03-11T19:17:14.077Z,14.10
2018-03-11T19:19:41.989Z,14.10
2018-03-11T19:22:10.242Z,14.20
2018-03-11T19:24:38.149Z,14.30
2018-03-11T19:27:06.062Z,14.30
2018-03-11T19:29:33.968Z,14.30
2018-03-11T19:32:01.880Z,14.30
2018-03-11T19:34:29.836Z,14.20
2018-03-11T19:36:57.712Z,14.10
2018-03-11T19:39:25.621Z,14.00
2018-03-11T19:41:53.541Z,14.00
2018-03-11T19:44:21.433Z,13.90
2018-03-11T19:46:49.366Z,13.90
2018-03-11T19:49:17.273Z,13.80
2018-03-11T19:51:45.192Z,13.90
2018-03-11T19:54:13.085Z,13.80
2018-03-11T19:56:40.973Z,13.80
2018-03-11T19:59:08.881Z,13.70
2018-03-11T20:01:36.779Z,13.70
2018-03-11T20:04:04.737Z,13.60
2018-03-11T20:06:32.632Z,13.60
2018-03-11T20:09:00.925Z,13.50
2018-03-11T20:11:28.810Z,13.50
2018-03-11T20:13:56.736Z,13.60
2018-03-11T20:16:24.636Z,13.40
2018-03-11T20:18:52.536Z,13.30
2018-03-11T20:21:20.432Z,13.40
2018-03-11T20:23:48.340Z,13.40
2018-03-11T20:26:16.258Z,13.50
2018-03-11T20:28:44.149Z,13.40
2018-03-11T20:31:12.041Z,13.50
2018-03-11T20:33:39.953Z,13.50
2018-03-11T20:36:07.856Z,13.50
2018-03-11T20:38:35.760Z,13.40
2018-03-11T20:41:03.676Z,13.40
2018-03-11T20:43:31.580Z,13.40
2018-03-11T20:45:59.485Z,13.40
2018-03-11T20:48:27.400Z,13.40
2018-03-11T20:50:55.797Z,13.40
2018-03-11T20:53:23.706Z,13.40
2018-03-11T20:55:51.614Z,13.40
2018-03-11T20:58:19.516Z,13.30
2018-03-11T21:00:54.417Z,13.30
2018-03-11T21:03:22.357Z,13.30
2018-03-11T21:05:50.269Z,13.20
2018-03-11T21:08:18.161Z,13.10
2018-03-11T21:10:46.061Z,13.10
2018-03-11T21:13:13.956Z,13.10
2018-03-11T21:15:41.861Z,13.10
2018-03-11T21:18:09.794Z,13.00
2018-03-11T21:20:37.693Z,12.90
2018-03-11T21:23:05.596Z,12.90
2018-03-11T21:25:33.530Z,12.90
2018-03-11T21:28:01.427Z,12.90
2018-03-11T21:30:29.804Z,12.90
2018-03-11T21:33:04.641Z,12.70
2018-03-11T21:35:32.550Z,12.70
2018-03-11T21:38:00.445Z,12.70
2018-03-11T21:40:28.353Z,12.70
2018-03-11T21:42:56.369Z,12.80
2018-03-11T21:46:16.481Z,12.80
2018-03-11T21:48:44.413Z,12.70
2018-03-11T21:51:12.312Z,12.70
2018-03-11T21:53:40.204Z,12.70
2018-03-11T21:56:08.126Z,12.70
2018-03-11T21:58:36.016Z,12.60
2018-03-11T22:01:03.932Z,12.50
2018-03-11T22:03:31.838Z,12.50
2018-03-11T22:05:59.744Z,12.50
2018-03-11T22:08:27.641Z,12.50
2018-03-11T22:10:55.540Z,12.40
2018-03-11T22:13:23.457Z,12.40
2018-03-11T22:15:51.367Z,12.40
2018-03-11T22:18:19.299Z,12.40
2018-03-11T22:20:47.200Z,12.40
2018-03-11T22:23:15.104Z,12.40
2018-03-11T22:25:43.028Z,12.40
2018-03-11T22:28:10.941Z,12.30
2018-03-11T22:30:38.844Z,12.40
2018-03-11T22:33:06.747Z,12.30
2018-03-11T22:35:34.644Z,12.20
2018-03-11T22:38:02.549Z,12.20
2018-03-11T22:40:30.445Z,12.20
2018-03-11T22:42:58.349Z,12.20
2018-03-11T22:45:26.254Z,12.10
2018-03-11T22:47:54.153Z,12.00
2018-03-11T22:50:22.073Z,11.90
2018-03-11T22:52:50.600Z,11.90
2018-03-11T22:55:18.496Z,11.90
2018-03-11T22:57:46.392Z,11.90
2018-03-11T23:00:14.298Z,11.80
2018-03-11T23:02:42.191Z,11.80
2018-03-11T23:05:10.097Z,11.70
2018-03-11T23:07:38.008Z,11.70
2018-03-11T23:10:05.912Z,11.70
2018-03-11T23:12:33.816Z,11.60
2018-03-11T23:15:01.725Z,11.50
2018-03-11T23:17:29.620Z,11.50
2018-03-11T23:19:57.521Z,11.50
2018-03-11T23:22:25.413Z,11.50
2018-03-11T23:24:53.657Z,11.40
2018-03-11T23:27:21.560Z,11.40
2018-03-11T23:29:49.466Z,11.40
2018-03-11T23:32:17.368Z,11.30
2018-03-11T23:34:45.276Z,11.30
2018-03-11T23:37:13.169Z,11.10
2018-03-11T23:39:41.088Z,11.00
2018-03-11T23:42:08.985Z,11.00
2018-03-11T23:44:37.043Z,10.90
2018-03-11T23:47:04.968Z,10.90
2018-03-11T23:49:32.905Z,10.80
2018-03-11T23:52:00.845Z,10.80
2018-03-11T23:54:29.330Z,10.80
2018-03-11T23:56:57.221Z,10.80
2018-03-11T23:59:25.128Z,10.90
